Ora Direzione Vento Velocita' Vento Media Vento Raffica Max. Temperatura Wind Chill Pioggia Pressione
02:40:40.0270 °(W)0.0 Kts1.0 Kts3.1 Kts6.1 °C6.1 °C0.0 mm1009.4 Hpa
02:20:22.0202 °(SSW)0.0 Kts0.1 Kts3.1 Kts5.8 °C5.8 °C0.0 mm1009.4 Hpa
02:00:15.0292 °(WNW)0.0 Kts0.1 Kts3.1 Kts5.4 °C5.4 °C0.0 mm1009.4 Hpa
01:40:04.0292 °(WNW)0.0 Kts0.0 Kts3.1 Kts4.9 °C4.9 °C0.0 mm1009.5 Hpa
01:19:56.0292 °(WNW)2.1 Kts1.7 Kts3.1 Kts4.4 °C4.3 °C0.0 mm1009.5 Hpa
00:59:38.0294 °(WNW)0.0 Kts0.1 Kts3.1 Kts4.8 °C4.8 °C0.0 mm1009.5 Hpa
00:40:40.0292 °(WNW)0.0 Kts0.4 Kts3.1 Kts4.8 °C4.8 °C0.0 mm1009.6 Hpa
00:20:25.0292 °(WNW)1.2 Kts0.7 Kts3.1 Kts4.9 °C4.9 °C0.0 mm1009.7 Hpa
00:00:18.0315 °(NW)1.7 Kts1.3 Kts13.8 Kts4.9 °C4.9 °C0.0 mm1009.8 Hpa
23:40:10.0315 °(NW)2.1 Kts2.0 Kts13.8 Kts5.1 °C4.8 °C0.0 mm1009.7 Hpa
23:20:04.00 °(N)1.6 Kts1.5 Kts13.8 Kts5.3 °C5.3 °C0.0 mm1009.5 Hpa
22:59:56.00 °(N)0.8 Kts0.3 Kts13.8 Kts5.5 °C5.5 °C0.0 mm1009.5 Hpa
22:39:51.0270 °(W)1.4 Kts0.7 Kts13.8 Kts5.9 °C5.9 °C0.0 mm1009.5 Hpa
22:19:42.0270 °(W)2.1 Kts2.3 Kts13.8 Kts6.1 °C5.7 °C0.0 mm1009.4 Hpa
21:59:35.0270 °(W)3.3 Kts2.8 Kts13.8 Kts5.6 °C4.7 °C0.0 mm1009.3 Hpa
21:40:33.0270 °(W)2.9 Kts2.1 Kts13.8 Kts5.8 °C5.5 °C0.0 mm1009.4 Hpa
21:20:32.0270 °(W)1.7 Kts1.2 Kts13.8 Kts5.6 °C5.6 °C0.0 mm1009.3 Hpa
21:00:23.0270 °(W)1.7 Kts1.2 Kts13.8 Kts5.9 °C5.9 °C0.0 mm1009.4 Hpa
20:40:12.0292 °(WNW)1.7 Kts0.1 Kts13.8 Kts6.1 °C6.1 °C0.0 mm1009.4 Hpa
20:20:05.0225 °(SW)1.9 Kts1.6 Kts13.8 Kts6.1 °C6.1 °C0.0 mm1009.2 Hpa